Time;durP1;ratioP1;P1;durP2;ratioP2;P2;SDS_P1;SDS_P2;PMS_P1;PMS_P2;Temp;Humidity;BMP_temperature;BMP_pressure;BME280_temperature;BME280_humidity;BME280_pressure;Samples;Min_cycle;Max_cycle;Signal;HPM_P1;HPM_P2
2022/06/05 00:00:29;;;;;;;;;;;;;;;18.72;50.52;100920.22;5023010;28;19936;-80
2022/06/05 00:02:58;;;;;;;;;;;;;;;18.69;51.55;100915.19;5022467;28;19920;-81
2022/06/05 00:05:28;;;;;;;;;;;;;;;18.63;51.23;100907.84;5029076;28;19928;-81
2022/06/05 00:08:02;;;;;;;;;;;;;;;18.65;50.75;100904.94;5033235;28;19914;-81
2022/06/05 00:10:31;;;;;;;;;;;;;;;18.60;50.86;100902.84;5022346;28;19947;-81
2022/06/05 00:13:03;;;;;;;;;;;;;;;18.45;50.22;100896.72;5010716;28;19956;-81
2022/06/05 00:15:28;;;;;;;;;;;;;;;18.47;50.70;100897.38;5026973;28;19917;-80
2022/06/05 00:17:53;;;;;;;;;;;;;;;18.34;50.31;100899.03;5031270;28;20447;-81
2022/06/05 00:20:19;;;;;;;;;;;;;;;18.29;51.04;100898.81;5025838;28;19916;-83
2022/06/05 00:22:44;;;;;;;;;;;;;;;18.34;50.92;100896.31;5007676;28;19921;-80
2022/06/05 00:25:09;;;;;;;;;;;;;;;18.46;50.67;100895.69;5024768;28;19917;-80
2022/06/05 00:27:35;;;;;;;;;;;;;;;18.47;50.63;100881.03;5028968;28;19920;-80
2022/06/05 00:30:11;;;;;;;;;;;;;;;18.42;50.83;100880.81;5026865;28;19915;-80
2022/06/05 00:32:48;;;;;;;;;;;;;;;18.46;51.35;100879.38;5010669;28;19917;-80
2022/06/05 00:35:17;;;;;;;;;;;;;;;18.42;51.20;100878.09;5003977;28;20028;-79
2022/06/05 00:37:48;;;;;;;;;;;;;;;18.42;51.29;100878.09;5029511;28;20402;-79
2022/06/05 00:40:13;;;;;;;;;;;;;;;18.43;51.92;100863.47;5023582;28;20049;-80
2022/06/05 00:42:39;;;;;;;;;;;;;;;18.35;52.28;100862.63;5031452;28;19963;-80
2022/06/05 00:45:05;;;;;;;;;;;;;;;18.26;53.09;100863.00;5024324;28;20727;-80
2022/06/05 00:47:31;;;;;;;;;;;;;;;18.20;53.31;100861.94;5013731;28;19921;-79
2022/06/05 00:50:05;;;;;;;;;;;;;;;18.20;53.62;100858.41;5024431;28;20007;-80
2022/06/05 00:52:31;;;;;;;;;;;;;;;18.21;53.79;100855.44;5002790;28;19917;-79
2022/06/05 00:54:57;;;;;;;;;;;;;;;18.13;53.73;100858.38;5012641;28;20403;-80
2022/06/05 00:57:22;;;;;;;;;;;;;;;18.13;54.67;100858.38;5037149;28;19921;-83
2022/06/05 00:59:48;;;;;;;;;;;;;;;18.00;55.84;100855.59;5025443;28;19920;-79
2022/06/05 01:02:14;;;;;;;;;;;;;;;17.99;55.68;100853.94;5030163;28;19936;-79
2022/06/05 01:04:40;;;;;;;;;;;;;;;17.95;56.11;100850.78;4994896;28;20357;-79
2022/06/05 01:07:06;;;;;;;;;;;;;;;17.92;56.94;100845.75;5017627;28;19917;-80
2022/06/05 01:09:31;;;;;;;;;;;;;;;18.01;56.58;100846.44;5003902;28;20453;-79
2022/06/05 01:12:15;;;;;;;;;;;;;;;18.13;55.90;100833.88;5026278;28;20381;-79
2022/06/05 01:14:46;;;;;;;;;;;;;;;18.03;56.18;100831.56;5029011;28;19960;-79
2022/06/05 01:17:17;;;;;;;;;;;;;;;17.89;55.92;100830.69;5028921;28;19939;-79
2022/06/05 01:19:55;;;;;;;;;;;;;;;17.83;55.95;100833.38;5012752;28;19921;-79
2022/06/05 01:22:20;;;;;;;;;;;;;;;17.80;55.88;100825.63;5010562;28;20600;-79
2022/06/05 01:24:55;;;;;;;;;;;;;;;17.89;56.02;100830.69;5012138;28;20022;-79
2022/06/05 01:27:22;;;;;;;;;;;;;;;17.90;55.96;100826.91;5030214;28;19913;-79
2022/06/05 01:29:47;;;;;;;;;;;;;;;17.82;56.41;100824.41;5025836;28;19920;-79
2022/06/05 01:32:14;;;;;;;;;;;;;;;17.77;56.86;100826.00;5026407;28;19987;-80
2022/06/05 01:34:42;;;;;;;;;;;;;;;17.74;57.08;100827.25;5007300;28;19951;-79
2022/06/05 01:37:16;;;;;;;;;;;;;;;17.71;57.43;100816.78;5012788;28;19928;-80
2022/06/05 01:40:00;;;;;;;;;;;;;;;17.86;57.08;100819.38;5024511;28;19920;-79
2022/06/05 01:42:26;;;;;;;;;;;;;;;17.85;58.11;100829.41;5030223;28;19913;-80
2022/06/05 01:44:56;;;;;;;;;;;;;;;17.86;59.53;100822.97;5022560;28;19921;-80
2022/06/05 01:47:23;;;;;;;;;;;;;;;17.84;59.73;100821.44;4992944;28;19913;-80
2022/06/05 01:49:52;;;;;;;;;;;;;;;17.88;59.54;100815.41;5015887;28;20011;-80
2022/06/05 01:52:40;;;;;;;;;;;;;;;17.83;60.29;100819.78;5012710;28;19917;-79
2022/06/05 01:55:07;;;;;;;;;;;;;;;17.82;60.59;100816.25;5007671;28;19933;-79
2022/06/05 01:57:33;;;;;;;;;;;;;;;17.80;60.19;100814.75;5012466;28;19920;-79
2022/06/05 02:00:18;;;;;;;;;;;;;;;17.78;60.22;100817.66;4998628;28;19913;-79
2022/06/05 02:02:45;;;;;;;;;;;;;;;17.71;59.06;100825.78;4992892;28;19975;-79
2022/06/05 02:05:12;;;;;;;;;;;;;;;17.75;58.36;100823.50;5026687;28;19924;-80
2022/06/05 02:07:39;;;;;;;;;;;;;;;17.68;58.66;100819.94;5013729;28;19913;-79
2022/06/05 02:10:08;;;;;;;;;;;;;;;17.66;58.66;100833.72;5025076;28;19921;-80
2022/06/05 02:12:33;;;;;;;;;;;;;;;17.77;58.50;100836.88;5018772;28;19913;-80
2022/06/05 02:14:59;;;;;;;;;;;;;;;17.63;58.26;100836.84;5022379;28;19916;-80
2022/06/05 02:17:24;;;;;;;;;;;;;;;17.71;57.82;100827.66;5039594;28;19924;-80
2022/06/05 02:19:50;;;;;;;;;;;;;;;17.65;56.98;100823.03;5023086;28;19952;-80
2022/06/05 02:22:23;;;;;;;;;;;;;;;17.62;56.96;100823.44;5024610;28;19917;-79
2022/06/05 02:24:48;;;;;;;;;;;;;;;17.53;56.52;100833.66;5015592;28;19921;-80
2022/06/05 02:27:14;;;;;;;;;;;;;;;17.56;57.55;100836.00;5013353;28;19924;-80
2022/06/05 02:29:39;;;;;;;;;;;;;;;17.47;59.59;100835.31;5029029;28;19979;-79
2022/06/05 02:32:05;;;;;;;;;;;;;;;17.66;58.85;100835.59;5011656;28;19913;-80
2022/06/05 02:34:33;;;;;;;;;;;;;;;17.58;60.21;100833.03;5027359;28;20440;-79
2022/06/05 02:36:58;;;;;;;;;;;;;;;17.55;60.30;100833.47;5033456;28;20394;-79
2022/06/05 02:39:35;;;;;;;;;;;;;;;17.62;60.54;100834.31;5026795;28;19921;-80
2022/06/05 02:42:13;;;;;;;;;;;;;;;17.51;61.50;100839.31;5006645;28;19913;-79
2022/06/05 02:44:41;;;;;;;;;;;;;;;17.51;62.05;100841.16;5027099;28;20000;-80
2022/06/05 02:47:06;;;;;;;;;;;;;;;17.56;61.62;100852.31;5032817;28;19913;-79
2022/06/05 02:49:34;;;;;;;;;;;;;;;17.37;62.82;100850.31;5027059;28;20373;-79
2022/06/05 02:52:01;;;;;;;;;;;;;;;17.33;62.26;100846.34;5032880;28;19920;-79
2022/06/05 02:54:27;;;;;;;;;;;;;;;17.37;62.05;100844.88;5015148;28;19917;-78
2022/06/05 02:56:53;;;;;;;;;;;;;;;17.45;61.68;100840.13;5003432;28;20393;-78
2022/06/05 02:59:19;;;;;;;;;;;;;;;17.47;61.73;100834.47;5012028;28;19921;-78
2022/06/05 03:04:28;;;;;;;;;;;;;;;17.34;62.69;100832.53;5025143;28;20314;-78
2022/06/05 03:06:53;;;;;;;;;;;;;;;17.48;62.30;100828.00;5025148;28;19921;-80
2022/06/05 03:09:19;;;;;;;;;;;;;;;17.54;61.60;100818.22;5031881;28;20308;-79
2022/06/05 03:11:44;;;;;;;;;;;;;;;17.50;61.94;100829.47;5024899;28;19917;-79
2022/06/05 03:14:10;;;;;;;;;;;;;;;17.45;61.69;100828.41;5030583;28;19917;-79
2022/06/05 03:16:35;;;;;;;;;;;;;;;17.58;61.30;100824.91;5032649;28;19917;-79
2022/06/05 03:19:00;;;;;;;;;;;;;;;17.71;61.03;100824.94;5012284;28;19959;-81
2022/06/05 03:21:26;;;;;;;;;;;;;;;17.55;61.21;100820.69;5030884;28;20015;-81
2022/06/05 03:23:51;;;;;;;;;;;;;;;17.56;62.16;100816.09;5010758;28;19917;-80
2022/06/05 03:26:16;;;;;;;;;;;;;;;17.46;62.64;100822.75;5029568;28;20008;-80
2022/06/05 03:28:42;;;;;;;;;;;;;;;17.65;61.58;100823.03;5028893;28;19927;-80
2022/06/05 03:31:07;;;;;;;;;;;;;;;17.62;62.05;100815.28;5022399;28;19983;-81
2022/06/05 03:33:33;;;;;;;;;;;;;;;17.67;61.45;100810.09;5030243;28;19917;-80
2022/06/05 03:35:58;;;;;;;;;;;;;;;17.60;61.32;100815.50;5019813;28;19914;-79
2022/06/05 03:38:23;;;;;;;;;;;;;;;17.79;60.67;100813.88;5013389;28;19944;-80
2022/06/05 03:40:49;;;;;;;;;;;;;;;17.77;59.95;100810.56;5027763;28;19917;-79
2022/06/05 03:43:14;;;;;;;;;;;;;;;17.97;59.09;100815.22;5030587;28;19963;-80
2022/06/05 03:45:39;;;;;;;;;;;;;;;18.11;57.92;100811.47;5009769;28;20373;-80
2022/06/05 03:48:05;;;;;;;;;;;;;;;18.01;57.31;100802.91;5013718;28;20012;-80
2022/06/05 03:50:31;;;;;;;;;;;;;;;18.06;56.98;100793.06;5026430;28;20003;-79
2022/06/05 03:52:56;;;;;;;;;;;;;;;17.98;57.12;100795.13;5032275;28;20314;-80
2022/06/05 03:55:22;;;;;;;;;;;;;;;17.97;56.69;100788.03;4996845;28;19913;-82
2022/06/05 03:57:47;;;;;;;;;;;;;;;18.07;55.54;100788.44;5032372;28;19920;-79
2022/06/05 04:00:13;;;;;;;;;;;;;;;18.27;54.72;100792.03;5026302;28;19967;-80
2022/06/05 04:02:39;;;;;;;;;;;;;;;18.43;54.15;100793.50;5021297;28;19927;-79
2022/06/05 04:05:04;;;;;;;;;;;;;;;18.61;53.08;100792.03;5019907;28;20322;-80
2022/06/05 04:07:30;;;;;;;;;;;;;;;18.92;52.05;100785.97;4997979;28;20369;-79
2022/06/05 04:09:55;;;;;;;;;;;;;;;19.22;51.41;100788.16;5017076;28;19975;-79
2022/06/05 04:12:20;;;;;;;;;;;;;;;19.49;49.96;100787.00;5036010;28;19913;-79
2022/06/05 04:14:46;;;;;;;;;;;;;;;19.67;49.09;100780.03;5036217;28;20364;-79
2022/06/05 04:17:11;;;;;;;;;;;;;;;19.87;48.41;100783.47;5029899;28;20513;-78
2022/06/05 04:19:36;;;;;;;;;;;;;;;20.06;48.68;100783.56;4996732;28;20016;-78
2022/06/05 04:22:02;;;;;;;;;;;;;;;20.33;48.06;100776.03;5029854;28;19971;-79
2022/06/05 04:24:27;;;;;;;;;;;;;;;20.51;47.32;100773.34;5013382;28;19924;-81
2022/06/05 04:26:52;;;;;;;;;;;;;;;20.61;46.46;100770.16;5028699;28;19919;-81
2022/06/05 04:29:18;;;;;;;;;;;;;;;20.82;45.92;100763.44;5026925;28;20298;-80
2022/06/05 04:31:45;;;;;;;;;;;;;;;21.04;45.59;100758.34;5021944;28;20354;-80
2022/06/05 04:34:10;;;;;;;;;;;;;;;21.20;45.07;100765.94;5003595;28;20008;-81
2022/06/05 04:36:36;;;;;;;;;;;;;;;21.45;44.76;100757.66;5012893;28;20024;-79
2022/06/05 04:39:01;;;;;;;;;;;;;;;21.75;43.94;100761.44;5013535;28;19920;-81
2022/06/05 04:41:27;;;;;;;;;;;;;;;21.78;42.71;100761.00;5031589;28;20397;-79
2022/06/05 04:43:52;;;;;;;;;;;;;;;22.07;42.40;100762.84;5028548;28;19917;-81
2022/06/05 04:46:18;;;;;;;;;;;;;;;22.24;42.72;100754.00;5026039;28;19913;-80
2022/06/05 04:48:43;;;;;;;;;;;;;;;22.54;42.37;100765.69;5027363;28;20439;-80
2022/06/05 04:51:09;;;;;;;;;;;;;;;22.70;41.89;100752.34;5010956;28;20003;-80
2022/06/05 04:53:35;;;;;;;;;;;;;;;22.79;41.62;100753.66;5027163;28;19975;-80
2022/06/05 04:56:07;;;;;;;;;;;;;;;23.04;40.87;100750.69;5026036;28;19913;-80
2022/06/05 04:58:33;;;;;;;;;;;;;;;23.25;40.39;100749.22;5029059;28;19926;-80
2022/06/05 05:00:59;;;;;;;;;;;;;;;23.35;40.49;100757.63;5001890;28;19917;-79
2022/06/05 05:03:24;;;;;;;;;;;;;;;23.63;40.48;100761.47;5031156;28;19917;-81
2022/06/05 05:05:50;;;;;;;;;;;;;;;23.71;41.44;100765.72;5017568;28;20012;-80
2022/06/05 05:08:15;;;;;;;;;;;;;;;24.03;41.58;100766.06;5004441;28;19921;-80
2022/06/05 05:10:41;;;;;;;;;;;;;;;24.39;40.82;100769.41;5013381;28;19913;-80
2022/06/05 05:13:06;;;;;;;;;;;;;;;24.53;40.49;100759.78;5030958;28;19964;-80
2022/06/05 05:15:32;;;;;;;;;;;;;;;24.67;40.20;100764.94;5027523;28;19912;-81
2022/06/05 05:17:57;;;;;;;;;;;;;;;24.81;40.07;100755.25;5034200;28;19936;-79
2022/06/05 05:20:23;;;;;;;;;;;;;;;24.97;40.13;100762.63;4995100;28;19913;-82
2022/06/05 05:22:49;;;;;;;;;;;;;;;25.13;40.00;100762.84;5030604;28;19919;-82
2022/06/05 05:25:15;;;;;;;;;;;;;;;25.38;39.59;100760.44;5008127;28;19917;-80
2022/06/05 05:27:41;;;;;;;;;;;;;;;25.63;39.15;100757.13;5029305;28;19917;-80
2022/06/05 05:30:06;;;;;;;;;;;;;;;25.87;38.86;100756.84;5026946;28;19920;-80
2022/06/05 05:32:32;;;;;;;;;;;;;;;25.82;38.88;100759.50;5027063;28;19967;-83
2022/06/05 05:34:58;;;;;;;;;;;;;;;25.92;38.19;100761.56;5025612;28;19919;-81
2022/06/05 05:37:23;;;;;;;;;;;;;;;25.94;38.61;100762.13;5030843;28;20003;-82
2022/06/05 05:42:33;;;;;;;;;;;;;;;26.50;37.34;100765.34;5000800;28;19919;-80
2022/06/05 05:44:58;;;;;;;;;;;;;;;26.82;36.93;100768.09;5019919;28;20007;-82
2022/06/05 05:47:26;;;;;;;;;;;;;;;26.98;36.83;100777.28;5013449;28;20300;-83
2022/06/05 05:49:52;;;;;;;;;;;;;;;27.25;36.30;100779.09;5016546;28;19917;-81
2022/06/05 05:52:17;;;;;;;;;;;;;;;27.44;36.08;100773.91;5023820;28;19936;-82
2022/06/05 05:54:43;;;;;;;;;;;;;;;27.47;35.89;100768.72;5029170;28;19956;-81
2022/06/05 05:57:08;;;;;;;;;;;;;;;27.50;36.07;100770.91;5033989;28;20007;-81
2022/06/05 05:59:34;;;;;;;;;;;;;;;27.58;36.04;100775.94;5028378;28;19966;-81
2022/06/05 06:01:59;;;;;;;;;;;;;;;27.83;35.97;100771.56;5003910;28;20012;-81
2022/06/05 06:04:24;;;;;;;;;;;;;;;28.05;35.52;100773.25;5014858;28;19949;-82
2022/06/05 06:06:50;;;;;;;;;;;;;;;28.19;35.21;100774.41;5049487;28;19924;-81
2022/06/05 06:09:16;;;;;;;;;;;;;;;28.54;34.50;100776.34;5029443;28;19917;-81
2022/06/05 06:11:41;;;;;;;;;;;;;;;28.77;34.21;100774.91;5016404;28;20019;-81
2022/06/05 06:14:07;;;;;;;;;;;;;;;29.05;33.87;100767.09;5029863;28;20011;-82
2022/06/05 06:16:33;;;;;;;;;;;;;;;29.24;33.78;100768.16;5028704;28;19945;-81
2022/06/05 06:18:58;;;;;;;;;;;;;;;29.35;33.25;100754.28;5033410;28;19917;-82
2022/06/05 06:21:24;;;;;;;;;;;;;;;29.58;32.88;100755.53;4996580;28;20401;-81
2022/06/05 06:23:49;;;;;;;;;;;;;;;29.70;32.94;100752.44;5018683;28;20040;-81
2022/06/05 06:26:14;;;;;;;;;;;;;;;29.56;32.97;100755.81;5012861;28;20000;-81
2022/06/05 06:28:40;;;;;;;;;;;;;;;29.08;33.52;100752.72;5023528;28;19917;-81
2022/06/05 06:31:05;;;;;;;;;;;;;;;29.32;33.35;100755.66;5023063;28;19917;-82
2022/06/05 06:33:31;;;;;;;;;;;;;;;29.53;32.74;100753.63;5031816;28;19917;-82
2022/06/05 06:35:59;;;;;;;;;;;;;;;29.75;31.80;100749.63;5011705;28;19913;-80
2022/06/05 06:38:24;;;;;;;;;;;;;;;30.05;31.14;100746.63;5013394;28;19928;-82
2022/06/05 06:40:56;;;;;;;;;;;;;;;30.30;31.09;100747.59;5020970;28;19918;-80
2022/06/05 06:43:21;;;;;;;;;;;;;;;30.56;30.97;100742.63;5011413;28;19925;-83
2022/06/05 06:45:47;;;;;;;;;;;;;;;30.91;29.89;100748.94;5010904;28;19980;-82
2022/06/05 06:48:12;;;;;;;;;;;;;;;30.97;28.76;100746.91;5014140;28;19924;-82
2022/06/05 06:50:37;;;;;;;;;;;;;;;31.17;28.86;100745.84;5029007;28;19927;-82
2022/06/05 06:53:03;;;;;;;;;;;;;;;31.34;27.64;100741.44;5032536;28;19984;-83
2022/06/05 06:55:32;;;;;;;;;;;;;;;31.48;27.32;100744.31;5035299;28;20381;-81
2022/06/05 06:57:58;;;;;;;;;;;;;;;31.49;26.21;100734.03;5034429;28;19996;-82
2022/06/05 07:00:23;;;;;;;;;;;;;;;31.81;26.03;100746.38;5002868;28;19957;-83
2022/06/05 07:02:48;;;;;;;;;;;;;;;32.07;24.59;100746.81;5033303;28;20007;-81
2022/06/05 07:05:13;;;;;;;;;;;;;;;32.03;21.99;100735.47;5008850;28;19927;-83
2022/06/05 07:07:39;;;;;;;;;;;;;;;32.16;23.24;100750.53;5022822;28;19917;-81
2022/06/05 07:10:04;;;;;;;;;;;;;;;32.53;22.18;100744.09;5030012;28;19917;-82
2022/06/05 07:12:30;;;;;;;;;;;;;;;32.80;21.87;100753.59;5018886;28;19913;-83
2022/06/05 07:14:55;;;;;;;;;;;;;;;32.92;21.43;100751.13;5032072;28;19917;-82
2022/06/05 07:17:20;;;;;;;;;;;;;;;33.22;20.74;100746.06;5020158;28;19901;-83
2022/06/05 07:19:46;;;;;;;;;;;;;;;33.50;19.07;100754.38;5019625;28;20305;-82
2022/06/05 07:22:11;;;;;;;;;;;;;;;33.83;18.52;100744.75;5015642;28;20351;-81
2022/06/05 07:24:36;;;;;;;;;;;;;;;34.22;18.91;100740.44;5015462;28;19924;-82
2022/06/05 07:27:02;;;;;;;;;;;;;;;34.48;18.76;100731.38;5012141;28;19913;-82
2022/06/05 07:29:27;;;;;;;;;;;;;;;34.31;18.21;100734.09;5007457;28;19975;-82
2022/06/05 07:31:53;;;;;;;;;;;;;;;34.26;16.91;100738.66;5022729;28;19913;-83
2022/06/05 07:34:18;;;;;;;;;;;;;;;34.45;17.17;100734.84;5018798;28;19934;-83
2022/06/05 07:36:43;;;;;;;;;;;;;;;34.23;17.08;100739.31;5035032;28;19967;-82
2022/06/05 07:39:09;;;;;;;;;;;;;;;34.21;17.14;100736.00;5029007;28;19924;-82
2022/06/05 07:41:36;;;;;;;;;;;;;;;34.09;17.46;100727.41;5030050;28;19984;-82
2022/06/05 07:44:01;;;;;;;;;;;;;;;34.01;19.53;100742.88;5009180;28;19918;-81
2022/06/05 07:46:27;;;;;;;;;;;;;;;33.33;21.23;100741.94;5032887;28;19932;-82
2022/06/05 07:48:52;;;;;;;;;;;;;;;33.20;21.60;100740.84;4998742;28;19917;-84
2022/06/05 07:56:47;;;;;;;;;;;;;;;32.26;28.06;100749.53;5005614;28;20052;-82
2022/06/05 07:59:13;;;;;;;;;;;;;;;31.83;29.20;100741.34;5014211;28;20003;-82
2022/06/05 08:01:38;;;;;;;;;;;;;;;31.95;29.59;100738.91;5032157;28;20431;-83
2022/06/05 08:04:04;;;;;;;;;;;;;;;32.07;30.05;100739.28;5012879;28;20381;-83
2022/06/05 08:06:30;;;;;;;;;;;;;;;32.37;29.62;100745.47;5032566;28;20452;-83
2022/06/05 08:08:56;;;;;;;;;;;;;;;32.73;28.35;100737.31;5023292;28;20424;-83
2022/06/05 08:11:21;;;;;;;;;;;;;;;33.14;26.85;100742.06;5030227;28;19916;-81
2022/06/05 08:13:46;;;;;;;;;;;;;;;33.45;26.05;100740.56;5029014;28;19918;-82
2022/06/05 08:16:12;;;;;;;;;;;;;;;33.63;26.96;100726.50;5004847;28;19967;-82
2022/06/05 08:18:37;;;;;;;;;;;;;;;34.10;26.27;100729.03;5012977;28;20341;-83
2022/06/05 08:21:03;;;;;;;;;;;;;;;34.30;25.95;100724.06;5021420;28;19913;-81
2022/06/05 08:23:28;;;;;;;;;;;;;;;34.36;24.76;100720.81;5031422;28;20366;-82
2022/06/05 08:25:53;;;;;;;;;;;;;;;34.41;21.68;100712.31;5011356;28;20309;-82
2022/06/05 08:28:19;;;;;;;;;;;;;;;34.75;22.48;100719.25;5018205;28;20640;-82
2022/06/05 08:30:44;;;;;;;;;;;;;;;35.30;17.36;100717.91;5037723;28;19921;-83
2022/06/05 08:33:10;;;;;;;;;;;;;;;35.13;16.31;100723.50;5042155;28;19920;-82
2022/06/05 08:35:35;;;;;;;;;;;;;;;35.45;15.06;100720.25;5004499;28;19921;-81
2022/06/05 08:43:57;;;;;;;;;;;;;;;36.38;19.52;100717.22;5019471;28;20002;-82
2022/06/05 08:46:23;;;;;;;;;;;;;;;36.32;20.86;100716.59;5029892;28;20015;-82
2022/06/05 08:48:52;;;;;;;;;;;;;;;36.49;20.75;100715.72;5017266;28;19975;-81
2022/06/05 08:51:36;;;;;;;;;;;;;;;36.00;21.45;100706.75;5008357;28;19944;-84
2022/06/05 08:54:04;;;;;;;;;;;;;;;36.10;22.29;100703.63;5018059;28;19978;-82
2022/06/05 08:56:48;;;;;;;;;;;;;;;35.81;22.92;100713.53;5013362;28;20015;-83
2022/06/05 08:59:14;;;;;;;;;;;;;;;35.24;19.87;100711.69;5007800;28;19925;-82
2022/06/05 09:01:39;;;;;;;;;;;;;;;35.06;24.52;100710.78;5032143;28;19909;-83
2022/06/05 09:04:11;;;;;;;;;;;;;;;34.87;24.60;100713.03;5025475;28;19917;-83
2022/06/05 09:06:38;;;;;;;;;;;;;;;35.08;26.33;100708.50;5031371;28;19916;-82
2022/06/05 09:09:05;;;;;;;;;;;;;;;35.67;25.86;100704.50;5010554;28;20381;-84
2022/06/05 09:11:45;;;;;;;;;;;;;;;35.66;23.02;100700.03;5026007;28;19984;-81
2022/06/05 09:14:20;;;;;;;;;;;;;;;36.55;23.35;100697.59;5024252;28;19983;-81
2022/06/05 09:16:48;;;;;;;;;;;;;;;36.96;22.21;100694.09;5012398;28;20008;-82
2022/06/05 09:19:17;;;;;;;;;;;;;;;36.92;21.24;100698.72;5013006;28;20420;-82
2022/06/05 09:22:02;;;;;;;;;;;;;;;37.25;20.19;100692.44;5024216;28;20385;-82
2022/06/05 09:24:31;;;;;;;;;;;;;;;37.79;20.83;100688.88;5020394;28;19913;-82
2022/06/05 09:26:56;;;;;;;;;;;;;;;37.57;21.28;100687.28;5031021;28;19913;-82
2022/06/05 09:29:22;;;;;;;;;;;;;;;38.17;21.22;100687.88;5026552;28;20408;-82
2022/06/05 09:31:50;;;;;;;;;;;;;;;38.74;20.70;100677.78;5028227;28;19920;-81
2022/06/05 09:34:19;;;;;;;;;;;;;;;38.45;23.09;100685.25;5025825;28;19917;-83
2022/06/05 09:36:47;;;;;;;;;;;;;;;38.09;22.57;100686.78;5028497;28;19924;-82
2022/06/05 09:39:19;;;;;;;;;;;;;;;38.39;23.09;100684.63;5023067;28;20008;-83
2022/06/05 09:41:48;;;;;;;;;;;;;;;38.40;21.63;100677.88;5030364;28;20056;-82
2022/06/05 09:44:16;;;;;;;;;;;;;;;38.59;21.72;100679.31;4995495;28;20389;-82
2022/06/05 09:46:47;;;;;;;;;;;;;;;38.88;20.79;100666.19;5029629;28;19914;-83
2022/06/05 09:49:16;;;;;;;;;;;;;;;39.66;19.56;100667.78;5024682;28;19929;-84
2022/06/05 09:51:43;;;;;;;;;;;;;;;39.11;20.13;100664.53;5013085;28;19913;-82
2022/06/05 09:54:20;;;;;;;;;;;;;;;39.99;19.39;100669.50;5011818;28;19917;-83
2022/06/05 09:59:34;;;;;;;;;;;;;;;41.24;16.97;100666.22;5015013;28;20286;-84
2022/06/05 10:02:00;;;;;;;;;;;;;;;41.12;15.30;100667.16;5011911;28;20023;-82
2022/06/05 10:04:29;;;;;;;;;;;;;;;39.85;16.29;100665.16;4995678;28;19924;-83
2022/06/05 10:06:56;;;;;;;;;;;;;;;40.04;14.93;100656.00;5010572;28;19952;-83
2022/06/05 10:09:22;;;;;;;;;;;;;;;40.32;13.93;100662.75;5002913;28;19959;-82
2022/06/05 10:12:03;;;;;;;;;;;;;;;40.64;13.39;100660.75;5031100;28;19920;-83
2022/06/05 10:14:28;;;;;;;;;;;;;;;40.50;12.66;100653.56;5031652;28;19924;-84
2022/06/05 10:16:57;;;;;;;;;;;;;;;40.44;13.32;100651.41;5016369;28;20004;-83
2022/06/05 10:19:41;;;;;;;;;;;;;;;39.12;14.53;100654.91;5018211;28;19917;-83
2022/06/05 10:22:09;;;;;;;;;;;;;;;37.04;16.72;100675.59;5034792;28;19913;-82
2022/06/05 10:24:34;;;;;;;;;;;;;;;35.66;19.22;100683.25;5016996;28;20510;-84
2022/06/05 10:27:00;;;;;;;;;;;;;;;35.47;19.88;100676.03;5027720;28;19913;-82
2022/06/05 10:29:33;;;;;;;;;;;;;;;36.30;20.49;100669.34;5011574;28;19917;-82
2022/06/05 10:32:19;;;;;;;;;;;;;;;37.09;21.72;100667.03;5027241;28;19913;-82
2022/06/05 10:35:03;;;;;;;;;;;;;;;37.66;22.55;100676.00;5007737;28;19925;-81
2022/06/05 10:37:29;;;;;;;;;;;;;;;36.74;23.67;100672.81;5040718;28;19955;-82
2022/06/05 10:40:10;;;;;;;;;;;;;;;37.07;23.08;100674.94;5028236;28;19917;-82
2022/06/05 10:43:02;;;;;;;;;;;;;;;35.38;25.50;100666.81;5025841;28;20397;-82
2022/06/05 10:45:35;;;;;;;;;;;;;;;34.99;25.97;100668.53;5009680;28;19960;-82
2022/06/05 10:48:06;;;;;;;;;;;;;;;34.74;25.89;100680.47;5010219;28;19913;-85
2022/06/05 10:50:37;;;;;;;;;;;;;;;33.68;25.01;100689.34;5024258;28;19924;-82
2022/06/05 10:53:10;;;;;;;;;;;;;;;33.39;25.43;100679.41;4998559;28;19913;-82
2022/06/05 10:55:55;;;;;;;;;;;;;;;33.22;25.95;100665.28;5014451;28;19927;-81
2022/06/05 10:58:33;;;;;;;;;;;;;;;33.40;26.19;100667.09;5031738;28;20336;-81
2022/06/05 11:01:17;;;;;;;;;;;;;;;33.35;25.49;100670.00;5022116;28;20314;-83
2022/06/05 11:03:51;;;;;;;;;;;;;;;33.14;25.05;100654.91;5028948;28;19928;-83
2022/06/05 11:06:25;;;;;;;;;;;;;;;32.37;25.00;100659.22;5007615;28;19923;-81
2022/06/05 11:09:08;;;;;;;;;;;;;;;31.59;24.38;100647.78;5028474;28;19921;-82
2022/06/05 11:14:33;;;;;;;;;;;;;;;30.85;28.06;100659.34;5025653;28;19927;-81
2022/06/05 11:16:58;;;;;;;;;;;;;;;30.52;30.35;100663.88;5039135;28;19913;-81
2022/06/05 11:19:27;;;;;;;;;;;;;;;30.25;33.59;100658.84;5032069;28;19917;-83
2022/06/05 11:21:53;;;;;;;;;;;;;;;29.74;37.35;100659.34;5032449;28;19956;-84
2022/06/05 11:24:23;;;;;;;;;;;;;;;29.25;40.06;100656.31;5021291;28;19936;-84
2022/06/05 11:27:08;;;;;;;;;;;;;;;29.14;41.04;100654.72;5017128;28;19967;-83
2022/06/05 11:29:36;;;;;;;;;;;;;;;28.83;42.40;100649.28;5024283;28;19943;-84
2022/06/05 11:32:10;;;;;;;;;;;;;;;28.55;44.65;100655.50;5029726;28;19909;-82
2022/06/05 11:34:35;;;;;;;;;;;;;;;28.33;46.47;100655.78;4998052;28;20465;-82
2022/06/05 11:37:12;;;;;;;;;;;;;;;28.14;47.98;100653.63;5032681;28;19955;-85
2022/06/05 11:39:56;;;;;;;;;;;;;;;27.79;53.70;100657.19;5026403;28;19956;-82
2022/06/05 11:42:31;;;;;;;;;;;;;;;27.63;53.98;100656.38;5032434;28;19908;-81
2022/06/05 11:45:03;;;;;;;;;;;;;;;27.21;54.30;100653.81;4997547;28;19991;-84
2022/06/05 11:47:37;;;;;;;;;;;;;;;27.17;53.49;100659.81;5031937;28;19913;-85
2022/06/05 11:50:21;;;;;;;;;;;;;;;26.92;53.66;100662.50;5011338;28;19921;-89
2022/06/05 11:52:57;;;;;;;;;;;;;;;27.15;53.33;100667.53;5029886;28;19957;-93
2022/06/05 11:55:42;;;;;;;;;;;;;;;27.33;49.23;100659.91;5032542;28;19967;-89
2022/06/05 11:58:10;;;;;;;;;;;;;;;27.21;47.39;100667.63;4992858;28;20096;-88
2022/06/05 12:00:37;;;;;;;;;;;;;;;26.97;46.20;100661.69;5010738;28;19921;-80
2022/06/05 12:03:10;;;;;;;;;;;;;;;27.06;44.30;100669.16;5027706;28;19917;-83
2022/06/05 12:05:54;;;;;;;;;;;;;;;26.71;45.62;100662.44;5021350;28;19960;-81
2022/06/05 12:08:36;;;;;;;;;;;;;;;26.93;47.83;100658.66;5027696;28;19994;-82
2022/06/05 12:11:11;;;;;;;;;;;;;;;27.08;47.81;100649.59;5005554;28;19917;-82
2022/06/05 12:13:42;;;;;;;;;;;;;;;27.28;49.23;100646.09;5027849;28;19921;-83
2022/06/05 12:16:13;;;;;;;;;;;;;;;27.31;49.88;100638.09;5014414;28;19963;-79
2022/06/05 12:18:38;;;;;;;;;;;;;;;27.11;51.40;100638.84;4994620;28;19947;-83
2022/06/05 12:21:07;;;;;;;;;;;;;;;27.18;51.31;100635.81;5030222;28;19921;-85
2022/06/05 12:23:55;;;;;;;;;;;;;;;27.38;51.25;100642.53;5021709;28;20394;-83
2022/06/05 12:26:27;;;;;;;;;;;;;;;27.07;51.18;100632.22;5002601;28;19921;-84
2022/06/05 12:28:53;;;;;;;;;;;;;;;27.19;47.72;100631.16;5012455;28;19951;-84
2022/06/05 12:31:22;;;;;;;;;;;;;;;26.74;46.83;100628.78;4991205;28;20281;-90
2022/06/05 12:34:00;;;;;;;;;;;;;;;26.84;48.00;100643.72;5005110;28;19917;-89
2022/06/05 12:36:45;;;;;;;;;;;;;;;27.20;47.70;100636.41;5023364;28;19927;-87
2022/06/05 12:39:17;;;;;;;;;;;;;;;27.09;47.85;100627.25;5026495;28;19921;-93
2022/06/05 12:41:46;;;;;;;;;;;;;;;27.33;46.80;100630.38;5006749;28;19921;-89
2022/06/05 12:44:28;;;;;;;;;;;;;;;27.46;46.27;100623.47;5027151;28;19932;-87
2022/06/05 12:47:27;;;;;;;;;;;;;;;27.53;45.78;100624.06;5028235;28;19921;-87
2022/06/05 12:49:56;;;;;;;;;;;;;;;27.80;45.11;100622.94;4987507;28;19975;-89
2022/06/05 12:52:30;;;;;;;;;;;;;;;27.81;44.55;100621.81;5032839;28;19924;-86
2022/06/05 12:54:55;;;;;;;;;;;;;;;27.74;44.82;100621.28;5010722;28;19916;-87
2022/06/05 12:57:29;;;;;;;;;;;;;;;27.75;44.79;100615.50;5009618;28;19921;-83
2022/06/05 12:59:57;;;;;;;;;;;;;;;27.82;44.24;100593.13;5008529;28;19976;-84
2022/06/05 13:02:28;;;;;;;;;;;;;;;27.87;43.20;100590.38;5014074;28;19958;-88
2022/06/05 13:04:54;;;;;;;;;;;;;;;28.10;41.96;100596.44;5028474;28;19921;-84